Airfield :
LOGIN :

Register | Disclaimer

   EN    FR    IT 

 










Legend :    VFR   Marginal VFR   IFR   Intensive IFR   Very Intensive IFR
Visi :
Ceiling :
>= 8 km
>= 3000ft
5 to 8 km
1000 to 3000 ft
1500m to 5 km
500 to 1000 ft
800 to 1500m
200 to 500 ft
< 800m
< 200 ft
Symbols :   Thunderstorms  Fog  Heavy snow  Heavy precipitations  Wind > 20 kt
SIGMETs :     Misc.  Thunderstorms  Icing  Turbulence  Mountain Waves  Volcanic Ashes






- Airport Elevation : 405 ft
- IATA code : ODH


EGVO - RAF Odiham

CURRENT METAR :
  • 180527Z 36010KT 4200 RA SCT003 BKN010 14/14 Q1013 NOSIG RMK YLO2 YLO2

EXPIRED METARs :
  • 180450Z AUTO 36011KT 3500 +RA BKN003/// SCT007/// BKN013/// 14/14 Q1013
  • 180350Z AUTO 01010KT 4400 -DZ OVC003/// 14/14 Q1013
  • 180250Z AUTO 36010KT 2700 RA BKN004/// BKN021/// 15/14 Q1013

TAF TAF EGVO
Valid from the 18 at 06:00 until the 18 at 18:00 UTC


180455Z 1806/1818 03010KT 4000 -RA BKN007
TEMPO 1806/1811 02015G25KT 2500 RA BKN005
PROB40
TEMPO 1806/1811 1200 +SHRA BKN003
BECMG 1810/1812 9999 -RA BKN030
TEMPO 1811/1818 36015G25KT 4000 RA BKN005
PROB40
TEMPO 1811/1818 2500 +SHRA



MET'MAP, your aeronautical weather chart ! - Copyright ORBIFLY December 2007 - Disclaimer

ORBIFLY MET'MAP TEAM :

Programming & Development : Alexandra Zaïnal
Concept & original design : Baudouin d'Aumeries
Assistance for programming : Marc-Olivier Méhu
Technical & hardware support : Manuel Goepfert

Contact : metmap@orbifly.com




SOURCES & CREDITS :

   NOAA